ウィーン の空港の天気 - METARとTAF

ウィーン国際空港 ( LOWW / VIE ) - オーストリア ウィーン
飛行場実況気象(Metar)
観測時間11/19 14:50 CET (11/19 13:50 UTC)
風向・風速西 7m/s
視程10km以上
天気現象
少しの雲 雲底高度 610m
全天の4割程度の雲 雲底高度 1280m
全天の8割程度の雲 雲底高度 1830m
気温5℃
湿度81%
気圧1013hPa
METARLOWW 191350Z 28013KT 9999 FEW020 SCT042 BKN060 05/02 Q1013 NOSIG
過去の天気等 Google飛行場航空写真 Wunderground天気予報

過去48時間のMETAR

飛行場予報(TAF)
発表時間: 11/19 14:22 CET (11/19 13:22 UTC)
予報対象時間: 19日14時 CET ~ 20日19時 CET
風向・風速西北西 9m/s 瞬間風速 14m/s
視程10km以上
全天の4割程度の雲 雲底高度 1,070m
全天の4割程度の雲 雲底高度 2,440m
19日14時 CET ~ 19日20時 CET に一時的に
風向・風速西 7m/s
天気現象弱いしゅう雨
少しの塔状積雲 雲底高度 910m
全天の8割程度の雲 雲底高度 1,070m
20日3時 CET ~ 20日8時 CET に一時的に
風向・風速西北西 13m/s 瞬間風速 21m/s
天気現象しゅう雨
全天の4割程度の塔状積雲 雲底高度 910m
全天の8割程度の雲 雲底高度 1,220m
20日15時 CET から
風向・風速西 6m/s
視程10km以上
なし
TAF AMD LOWW 191322Z 1913/2018 29018G28KT 9999 SCT035 SCT080 TX07/2011Z TN04/1916Z
TEMPO 1913/1919 27014KT -SHRA FEW030TCU BKN035
TEMPO 2002/2007 29025G40KT SHRA SCT030TCU BKN040
FM201400 28012KT CAVOK